Time;durP1;ratioP1;P1;durP2;ratioP2;P2;SDS_P1;SDS_P2;PMS_P1;PMS_P2;Temp;Humidity;BMP_temperature;BMP_pressure;BME280_temperature;BME280_humidity;BME280_pressure;Samples;Min_cycle;Max_cycle;Signal;HPM_P1;HPM_P2
2023/12/25 00:00:39;;;;;;;16.42;3.25;;;10.30;87.30;;;;;;5083165;28;20449;-48
2023/12/25 00:03:06;;;;;;;14.88;4.35;;;10.30;87.50;;;;;;5077348;28;20483;-52
2023/12/25 00:05:32;;;;;;;16.77;4.70;;;10.30;87.40;;;;;;5076531;28;20369;-51
2023/12/25 00:07:58;;;;;;;11.93;3.30;;;10.30;87.50;;;;;;5081529;28;20020;-50
2023/12/25 00:10:25;;;;;;;18.27;3.83;;;10.30;87.30;;;;;;5093132;28;20040;-49
2023/12/25 00:12:51;;;;;;;10.85;1.88;;;10.30;87.30;;;;;;5077554;28;20024;-50
2023/12/25 00:15:17;;;;;;;11.15;2.22;;;10.30;87.00;;;;;;5080084;28;20045;-52
2023/12/25 00:17:46;;;;;;;9.38;2.50;;;10.30;86.70;;;;;;5079105;28;20033;-52
2023/12/25 00:20:14;;;;;;;7.53;2.33;;;10.40;86.40;;;;;;5082832;28;20028;-48
2023/12/25 00:22:41;;;;;;;9.20;2.92;;;10.40;86.10;;;;;;5086199;28;20040;-50
2023/12/25 00:25:11;;;;;;;12.10;2.97;;;10.40;85.90;;;;;;5076096;28;20020;-50
2023/12/25 00:27:37;;;;;;;14.98;3.20;;;10.40;85.80;;;;;;5074877;28;20625;-51
2023/12/25 00:30:05;;;;;;;12.38;2.83;;;10.30;85.80;;;;;;5091778;28;20038;-53
2023/12/25 00:32:31;;;;;;;10.13;3.17;;;10.30;85.80;;;;;;5091942;28;20090;-48
2023/12/25 00:34:58;;;;;;;8.90;2.65;;;10.30;85.90;;;;;;5078129;28;20438;-49
2023/12/25 00:37:24;;;;;;;11.40;2.42;;;10.30;86.10;;;;;;5075755;28;20071;-49
2023/12/25 00:39:50;;;;;;;17.55;3.30;;;10.40;86.70;;;;;;5079333;28;20052;-49
2023/12/25 00:42:19;;;;;;;7.50;2.42;;;10.30;87.20;;;;;;5075596;28;20039;-49
2023/12/25 00:44:46;;;;;;;12.75;3.00;;;10.40;87.70;;;;;;5075487;28;20029;-50
2023/12/25 00:47:12;;;;;;;8.90;2.22;;;10.40;88.20;;;;;;5079073;28;20093;-50
2023/12/25 00:49:39;;;;;;;13.77;3.10;;;10.40;88.60;;;;;;5075528;28;20040;-48
2023/12/25 00:52:09;;;;;;;15.25;2.85;;;10.50;88.70;;;;;;5075523;28;20027;-50
2023/12/25 00:54:38;;;;;;;14.98;2.80;;;10.50;88.80;;;;;;5079502;28;20071;-51
2023/12/25 00:57:05;;;;;;;13.85;3.80;;;10.60;88.70;;;;;;5075372;28;20056;-48
2023/12/25 00:59:32;;;;;;;12.82;2.88;;;10.50;88.80;;;;;;5074151;28;20091;-48
2023/12/25 01:01:59;;;;;;;9.13;2.97;;;10.50;88.90;;;;;;5078309;28;20020;-49
2023/12/25 01:04:29;;;;;;;11.85;2.70;;;10.40;88.90;;;;;;5074754;28;20063;-51
2023/12/25 01:06:56;;;;;;;13.90;3.33;;;10.40;88.90;;;;;;5075301;28;20052;-50
2023/12/25 01:09:22;;;;;;;12.77;2.47;;;10.40;88.80;;;;;;5078681;28;20021;-48
2023/12/25 01:11:49;;;;;;;5.55;1.90;;;10.40;88.50;;;;;;5074955;28;20029;-48
2023/12/25 01:14:19;;;;;;;14.13;3.33;;;10.50;88.50;;;;;;5075026;28;20045;-52
2023/12/25 01:16:46;;;;;;;13.88;2.88;;;10.40;88.40;;;;;;5082651;28;20032;-50
2023/12/25 01:19:13;;;;;;;13.90;2.75;;;10.40;88.50;;;;;;5074890;28;20060;-48
2023/12/25 01:21:40;;;;;;;9.00;2.80;;;10.40;88.50;;;;;;5074914;28;20522;-48
2023/12/25 01:24:06;;;;;;;11.77;2.42;;;10.50;88.20;;;;;;5078247;28;20029;-52
2023/12/25 01:26:36;;;;;;;10.60;2.70;;;10.40;88.20;;;;;;5075039;28;20025;-53
2023/12/25 01:29:05;;;;;;;13.68;3.55;;;10.40;88.30;;;;;;5075175;28;20028;-48
2023/12/25 01:31:32;;;;;;;11.73;2.88;;;10.40;88.20;;;;;;5079443;28;20032;-47
2023/12/25 01:33:59;;;;;;;13.70;3.60;;;10.40;88.20;;;;;;5072173;28;20036;-49
2023/12/25 01:36:25;;;;;;;11.27;2.65;;;10.50;87.80;;;;;;5087994;28;20032;-48
2023/12/25 01:38:54;;;;;;;18.17;3.60;;;10.50;87.60;;;;;;5078260;28;20074;-48
2023/12/25 01:41:21;;;;;;;11.68;3.70;;;10.40;87.70;;;;;;5074600;28;20024;-48
2023/12/25 01:43:48;;;;;;;15.00;3.22;;;10.40;87.70;;;;;;5074406;28;20090;-50
2023/12/25 01:46:16;;;;;;;12.50;2.67;;;10.40;87.60;;;;;;5074483;28;20032;-50
2023/12/25 01:48:48;;;;;;;12.20;2.70;;;10.40;87.70;;;;;;5075756;28;20032;-48
2023/12/25 01:51:14;;;;;;;17.90;4.32;;;10.40;87.80;;;;;;5078848;28;20033;-52
2023/12/25 01:53:41;;;;;;;14.75;4.53;;;10.40;87.90;;;;;;5088120;28;20119;-54
2023/12/25 01:56:09;;;;;;;8.75;2.28;;;10.40;87.70;;;;;;5083745;28;20035;-49
2023/12/25 01:58:36;;;;;;;17.88;3.40;;;10.40;87.90;;;;;;5086893;28;20016;-49
2023/12/25 02:01:03;;;;;;;10.30;3.25;;;10.30;88.00;;;;;;5087351;28;20365;-49
2023/12/25 02:03:30;;;;;;;15.52;3.13;;;10.30;87.90;;;;;;5074272;28;20024;-47
2023/12/25 02:05:56;;;;;;;15.75;3.40;;;10.40;87.90;;;;;;5074308;28;20029;-47
2023/12/25 02:08:24;;;;;;;14.27;4.63;;;10.30;87.90;;;;;;5069528;28;20404;-49
2023/12/25 02:10:49;;;;;;;12.00;3.15;;;10.30;87.90;;;;;;5079503;28;20025;-50
2023/12/25 02:13:16;;;;;;;15.82;3.63;;;10.30;87.90;;;;;;5073865;28;20027;-49
2023/12/25 02:15:44;;;;;;;18.65;4.13;;;10.30;88.00;;;;;;5077283;28;20047;-48
2023/12/25 02:18:11;;;;;;;17.88;3.42;;;10.20;87.80;;;;;;5073492;28;20354;-48
2023/12/25 02:20:38;;;;;;;12.75;3.05;;;10.20;87.70;;;;;;5063620;28;20028;-50
2023/12/25 02:23:08;;;;;;;16.60;4.75;;;10.20;87.90;;;;;;5069141;28;20028;-48
2023/12/25 02:25:46;;;;;;;12.45;2.83;;;10.20;87.90;;;;;;5081302;28;20016;-49
2023/12/25 02:28:11;;;;;;;16.05;3.60;;;10.20;87.80;;;;;;5071368;28;20094;-48
2023/12/25 02:30:37;;;;;;;17.13;3.65;;;10.20;87.50;;;;;;5073668;28;20048;-51
2023/12/25 02:33:04;;;;;;;12.07;2.97;;;10.10;87.00;;;;;;5078249;28;20504;-50
2023/12/25 02:35:31;;;;;;;16.83;3.00;;;10.10;87.10;;;;;;5083760;28;20052;-47
2023/12/25 02:37:58;;;;;;;13.50;2.88;;;10.20;86.90;;;;;;5074584;28;20124;-47
2023/12/25 02:40:25;;;;;;;17.48;4.00;;;10.10;86.50;;;;;;5073353;28;20103;-50
2023/12/25 02:42:52;;;;;;;12.82;2.70;;;10.10;86.60;;;;;;5073674;28;20086;-49
2023/12/25 02:45:19;;;;;;;20.23;4.95;;;10.00;87.00;;;;;;5073313;28;20020;-48
2023/12/25 02:47:48;;;;;;;15.70;3.72;;;9.90;87.00;;;;;;5073234;28;20111;-47
2023/12/25 02:50:15;;;;;;;19.58;3.45;;;9.90;87.00;;;;;;5073434;28;20024;-47
2023/12/25 02:52:42;;;;;;;28.02;5.47;;;9.90;86.40;;;;;;5074469;28;20671;-50
2023/12/25 02:55:09;;;;;;;17.42;3.85;;;9.90;86.50;;;;;;5075176;28;20167;-50
2023/12/25 02:57:36;;;;;;;13.55;3.25;;;9.90;86.40;;;;;;5073361;28;20071;-49
2023/12/25 03:00:03;;;;;;;17.25;5.05;;;9.90;86.00;;;;;;5073133;28;20052;-47
2023/12/25 03:02:32;;;;;;;22.67;5.72;;;9.90;85.90;;;;;;5083383;28;20025;-49
2023/12/25 03:04:59;;;;;;;22.27;4.00;;;9.90;86.00;;;;;;5073136;28;20315;-49
2023/12/25 03:07:25;;;;;;;23.30;4.28;;;9.90;86.00;;;;;;5072873;28;20028;-51
2023/12/25 03:09:51;;;;;;;19.92;5.07;;;9.90;86.20;;;;;;5086312;28;20119;-48
2023/12/25 03:12:23;;;;;;;17.52;4.07;;;9.90;86.20;;;;;;5073029;28;20036;-48
2023/12/25 03:14:50;;;;;;;18.45;4.20;;;9.90;86.30;;;;;;5072629;28;20048;-47
2023/12/25 03:17:17;;;;;;;19.83;4.15;;;9.80;86.40;;;;;;5086540;28;20043;-47
2023/12/25 03:19:44;;;;;;;21.80;3.92;;;9.70;86.60;;;;;;5073033;28;20013;-49
2023/12/25 03:22:10;;;;;;;17.67;5.05;;;9.70;86.40;;;;;;5076458;28;20054;-52
2023/12/25 03:24:37;;;;;;;16.83;3.17;;;9.80;86.20;;;;;;5076400;28;20025;-48
2023/12/25 03:27:03;;;;;;;20.38;3.53;;;9.80;86.10;;;;;;5072847;28;20029;-52
2023/12/25 03:29:30;;;;;;;24.90;4.85;;;9.80;86.10;;;;;;5082761;28;20036;-48
2023/12/25 03:31:56;;;;;;;18.42;4.22;;;9.70;86.20;;;;;;5077516;28;20092;-47
2023/12/25 03:34:23;;;;;;;19.73;4.43;;;9.70;86.20;;;;;;5085786;28;20028;-47
2023/12/25 03:36:49;;;;;;;19.27;4.45;;;9.70;86.30;;;;;;5065241;28;20119;-48
2023/12/25 03:39:16;;;;;;;28.05;4.60;;;9.70;86.30;;;;;;5073152;28;20482;-49
2023/12/25 03:41:43;;;;;;;13.35;3.53;;;9.70;86.20;;;;;;5072303;28;20107;-49
2023/12/25 03:44:09;;;;;;;19.02;4.78;;;9.70;86.30;;;;;;5073000;28;20039;-48
2023/12/25 03:46:40;;;;;;;16.70;3.55;;;9.70;86.40;;;;;;5071666;28;20051;-47
2023/12/25 03:49:06;;;;;;;17.00;4.05;;;9.70;86.20;;;;;;5072567;28;20110;-47
2023/12/25 03:51:42;;;;;;;21.52;5.95;;;9.60;86.10;;;;;;5073387;28;20028;-51
2023/12/25 03:54:09;;;;;;;18.40;4.50;;;9.60;86.00;;;;;;5085138;28;20032;-50
2023/12/25 03:56:38;;;;;;;26.73;5.20;;;9.60;86.20;;;;;;5072284;28;20079;-47
2023/12/25 03:59:05;;;;;;;20.23;3.80;;;9.50;86.10;;;;;;5071323;28;20082;-47
2023/12/25 04:01:37;;;;;;;16.77;3.85;;;9.50;86.30;;;;;;5075976;28;20258;-49
2023/12/25 04:04:04;;;;;;;15.93;4.47;;;9.60;86.20;;;;;;5038355;28;20028;-53
2023/12/25 04:06:31;;;;;;;20.02;4.05;;;9.50;86.20;;;;;;5076764;28;20055;-48
2023/12/25 04:09:00;;;;;;;19.17;4.22;;;9.50;86.10;;;;;;5089908;28;20032;-48
2023/12/25 04:11:31;;;;;;;17.63;3.42;;;9.50;85.90;;;;;;5056469;28;21038;-48
2023/12/25 04:13:58;;;;;;;19.05;5.43;;;9.60;85.80;;;;;;5072657;28;20068;-48
2023/12/25 04:16:27;;;;;;;16.65;3.97;;;9.50;85.90;;;;;;5071784;28;20032;-47
2023/12/25 04:18:54;;;;;;;21.60;4.35;;;9.60;85.60;;;;;;5054463;28;20032;-49
2023/12/25 04:21:30;;;;;;;22.42;5.97;;;9.60;85.70;;;;;;5072197;28;20099;-47
2023/12/25 04:23:58;;;;;;;11.48;3.33;;;9.60;86.10;;;;;;5075713;28;20021;-50
2023/12/25 04:26:26;;;;;;;17.48;3.25;;;9.70;86.00;;;;;;5072099;28;20021;-48
2023/12/25 04:28:53;;;;;;;19.67;3.78;;;9.70;86.10;;;;;;5072417;28;20071;-51
2023/12/25 04:31:19;;;;;;;14.25;4.00;;;9.70;86.30;;;;;;5079962;28;20506;-47
2023/12/25 04:33:46;;;;;;;19.77;4.90;;;9.70;85.40;;;;;;5072534;28;20028;-47
2023/12/25 04:36:15;;;;;;;22.88;4.28;;;9.70;85.40;;;;;;5075612;28;20315;-50
2023/12/25 04:38:41;;;;;;;14.70;3.28;;;9.70;85.10;;;;;;5076001;28;20032;-49
2023/12/25 04:41:11;;;;;;;19.65;4.18;;;9.60;84.90;;;;;;5075348;28;20518;-47
2023/12/25 04:43:39;;;;;;;15.93;3.22;;;9.50;84.90;;;;;;5070077;28;20028;-46
2023/12/25 04:46:08;;;;;;;16.30;4.45;;;9.40;85.50;;;;;;5075397;28;20020;-46
2023/12/25 04:48:35;;;;;;;10.98;3.00;;;9.40;85.20;;;;;;5075265;28;20032;-47
2023/12/25 04:51:02;;;;;;;14.80;4.70;;;9.20;86.30;;;;;;5078761;28;20032;-44
2023/12/25 04:53:31;;;;;;;17.35;3.40;;;9.10;87.40;;;;;;5089024;28;20048;-43
2023/12/25 04:55:57;;;;;;;22.92;5.50;;;8.90;88.70;;;;;;5075091;28;20020;-43
2023/12/25 04:58:24;;;;;;;28.13;4.07;;;8.90;89.20;;;;;;5062453;28;20036;-44
2023/12/25 05:00:51;;;;;;;20.80;3.90;;;8.90;89.40;;;;;;5080506;28;20073;-42
2023/12/25 05:03:19;;;;;;;19.55;3.50;;;8.90;89.60;;;;;;5083804;28;20484;-43
2023/12/25 05:05:44;;;;;;;21.52;5.93;;;8.90;90.50;;;;;;5079375;28;20024;-43
2023/12/25 05:08:13;;;;;;;22.02;4.88;;;8.80;91.30;;;;;;5079439;28;20024;-42
2023/12/25 05:10:39;;;;;;;18.70;4.03;;;8.80;91.60;;;;;;5084975;28;20025;-45
2023/12/25 05:13:04;;;;;;;21.17;3.45;;;8.70;91.70;;;;;;5090320;28;20468;-44
2023/12/25 05:15:31;;;;;;;15.85;3.70;;;8.60;92.00;;;;;;5074941;28;20045;-48
2023/12/25 05:18:02;;;;;;;19.52;3.75;;;8.60;92.60;;;;;;5074840;28;20020;-50
2023/12/25 05:20:29;;;;;;;20.52;4.13;;;8.60;92.80;;;;;;5075237;28;20426;-47
2023/12/25 05:22:55;;;;;;;14.88;3.38;;;8.40;92.40;;;;;;5080323;28;20075;-45
2023/12/25 05:25:22;;;;;;;20.88;4.53;;;8.30;92.10;;;;;;5075404;28;20052;-50
2023/12/25 05:27:49;;;;;;;18.25;3.88;;;8.30;92.20;;;;;;5074481;28;20055;-50
2023/12/25 05:30:16;;;;;;;13.80;3.65;;;8.30;92.40;;;;;;5073851;28;20048;-51
2023/12/25 05:32:46;;;;;;;27.13;4.68;;;8.40;92.40;;;;;;5074815;28;20036;-51
2023/12/25 05:35:14;;;;;;;16.67;4.55;;;8.30;92.60;;;;;;5075940;28;20025;-50
2023/12/25 05:37:41;;;;;;;27.35;5.07;;;8.30;92.70;;;;;;5076633;28;20038;-48
2023/12/25 05:40:08;;;;;;;20.83;4.28;;;8.30;92.90;;;;;;5056784;28;20036;-47
2023/12/25 05:42:35;;;;;;;26.98;4.97;;;8.30;93.10;;;;;;5077487;28;20048;-46
2023/12/25 05:45:02;;;;;;;21.80;5.30;;;8.40;93.10;;;;;;5074302;28;20484;-48
2023/12/25 05:47:29;;;;;;;28.58;5.85;;;8.40;93.20;;;;;;5073872;28;20025;-47
2023/12/25 05:49:58;;;;;;;22.85;4.78;;;8.50;93.20;;;;;;5077630;28;20017;-45
2023/12/25 05:52:25;;;;;;;19.58;4.60;;;8.50;92.80;;;;;;5075727;28;20033;-46
2023/12/25 05:54:52;;;;;;;23.45;5.90;;;8.50;92.80;;;;;;5085056;28;20052;-47
2023/12/25 05:57:19;;;;;;;23.52;6.78;;;8.50;92.90;;;;;;5086029;28;20056;-46
2023/12/25 05:59:46;;;;;;;17.60;4.03;;;8.60;92.60;;;;;;5082297;28;20048;-46
2023/12/25 06:02:13;;;;;;;19.42;3.67;;;8.50;92.50;;;;;;5084127;28;20081;-46
2023/12/25 06:04:40;;;;;;;20.25;3.85;;;8.50;92.30;;;;;;5081589;28;20009;-46
2023/12/25 06:07:07;;;;;;;20.63;3.95;;;8.50;91.90;;;;;;5085420;28;20024;-50
2023/12/25 06:09:33;;;;;;;15.90;4.30;;;8.40;91.30;;;;;;5085636;28;20333;-48
2023/12/25 06:11:58;;;;;;;15.85;3.78;;;8.40;91.10;;;;;;5070796;28;20021;-46
2023/12/25 06:14:25;;;;;;;18.95;4.32;;;8.20;90.50;;;;;;5073410;28;20044;-45
2023/12/25 06:16:51;;;;;;;18.73;3.63;;;8.20;89.70;;;;;;5075425;28;20036;-48
2023/12/25 06:19:18;;;;;;;16.48;3.95;;;8.10;89.50;;;;;;5082714;28;20024;-45
2023/12/25 06:21:45;;;;;;;14.57;3.70;;;8.10;89.40;;;;;;5089816;28;20031;-46
2023/12/25 06:24:11;;;;;;;14.88;3.20;;;8.00;89.30;;;;;;5089267;28;20365;-47
2023/12/25 06:26:38;;;;;;;20.55;4.07;;;8.00;89.30;;;;;;5087757;28;20067;-50
2023/12/25 06:29:05;;;;;;;17.15;3.85;;;7.90;89.10;;;;;;5088887;28;20048;-47
2023/12/25 06:31:32;;;;;;;17.88;3.58;;;8.00;89.00;;;;;;5076352;28;20076;-46
2023/12/25 06:33:57;;;;;;;14.20;3.78;;;8.00;89.00;;;;;;5080127;28;20087;-50
2023/12/25 06:36:24;;;;;;;18.50;4.80;;;7.90;89.10;;;;;;5080398;28;20028;-49
2023/12/25 06:38:51;;;;;;;20.60;4.40;;;7.90;89.10;;;;;;5080442;28;20022;-47
2023/12/25 06:41:22;;;;;;;23.63;4.60;;;7.90;89.10;;;;;;5080420;28;20019;-48
2023/12/25 06:43:48;;;;;;;28.20;5.18;;;7.90;89.10;;;;;;5074476;28;20020;-47
2023/12/25 06:46:17;;;;;;;25.00;4.68;;;7.90;89.40;;;;;;5072288;28;20332;-46
2023/12/25 06:48:43;;;;;;;24.75;5.75;;;7.90;89.30;;;;;;5073941;28;20025;-46
2023/12/25 06:51:09;;;;;;;34.55;6.35;;;7.90;89.60;;;;;;5076790;28;20128;-46
2023/12/25 06:53:35;;;;;;;22.00;4.03;;;8.00;89.60;;;;;;5077168;28;20026;-47
2023/12/25 06:56:03;;;;;;;22.75;5.15;;;8.00;89.70;;;;;;5060924;28;20047;-48
2023/12/25 06:58:30;;;;;;;20.48;5.63;;;8.00;89.80;;;;;;5078310;28;20107;-46
2023/12/25 07:00:59;;;;;;;23.35;4.72;;;8.00;89.90;;;;;;5086205;28;20028;-45
2023/12/25 07:03:29;;;;;;;26.00;6.32;;;7.90;89.90;;;;;;5079093;28;20031;-49
2023/12/25 07:05:56;;;;;;;23.08;7.10;;;7.90;89.80;;;;;;5084933;28;20024;-46
2023/12/25 07:08:27;;;;;;;24.17;5.35;;;7.90;89.60;;;;;;5073090;28;20503;-46
2023/12/25 07:10:55;;;;;;;25.83;5.40;;;8.00;89.60;;;;;;5073551;28;20029;-47
2023/12/25 07:13:22;;;;;;;26.55;4.90;;;8.00;89.90;;;;;;5072501;28;20020;-46
2023/12/25 07:15:49;;;;;;;35.10;6.72;;;8.00;90.20;;;;;;5076198;28;20051;-46
2023/12/25 07:18:17;;;;;;;25.23;6.97;;;8.00;90.30;;;;;;5059610;28;20122;-48
2023/12/25 07:20:44;;;;;;;24.80;5.82;;;8.00;90.60;;;;;;5071999;28;20024;-52
2023/12/25 07:23:12;;;;;;;26.17;5.47;;;8.00;90.70;;;;;;5074952;28;20622;-47
2023/12/25 07:25:39;;;;;;;26.70;5.40;;;7.90;90.90;;;;;;5079659;28;20024;-47
2023/12/25 07:28:06;;;;;;;33.97;5.25;;;7.90;91.10;;;;;;5084386;28;20043;-46
2023/12/25 07:30:32;;;;;;;22.83;6.80;;;7.90;91.20;;;;;;5074726;28;20035;-49
2023/12/25 07:32:59;;;;;;;26.63;5.82;;;7.90;91.20;;;;;;5087962;28;20047;-50
2023/12/25 07:35:26;;;;;;;21.90;5.07;;;7.90;91.30;;;;;;5081460;28;20020;-46
2023/12/25 07:37:54;;;;;;;34.38;6.00;;;7.90;91.40;;;;;;5078600;28;20016;-49
2023/12/25 07:40:21;;;;;;;23.40;5.00;;;7.90;91.20;;;;;;5082953;28;20126;-46
2023/12/25 07:42:48;;;;;;;32.75;7.53;;;7.90;91.10;;;;;;5077628;28;20052;-48
2023/12/25 07:45:17;;;;;;;26.63;4.60;;;7.90;90.90;;;;;;5080205;28;20025;-46
2023/12/25 07:47:46;;;;;;;25.67;6.07;;;7.90;90.60;;;;;;5076930;28;20032;-48
2023/12/25 07:50:12;;;;;;;30.45;6.13;;;7.90;90.50;;;;;;5073260;28;20044;-46
2023/12/25 07:52:39;;;;;;;24.58;5.57;;;7.90;90.20;;;;;;5073149;28;20021;-46
2023/12/25 07:55:06;;;;;;;20.60;4.13;;;7.90;89.90;;;;;;5072032;28;20020;-46
2023/12/25 07:57:35;;;;;;;24.60;5.20;;;7.90;89.50;;;;;;5072318;28;20020;-48
2023/12/25 08:00:02;;;;;;;21.95;5.18;;;7.90;89.60;;;;;;5056586;28;20032;-49
2023/12/25 08:02:32;;;;;;;33.55;7.63;;;7.90;89.70;;;;;;5080867;28;20039;-46
2023/12/25 08:04:58;;;;;;;24.80;5.05;;;7.90;90.00;;;;;;5072558;28;20111;-48
2023/12/25 08:07:29;;;;;;;26.25;5.13;;;7.90;90.30;;;;;;5080307;28;20360;-47
2023/12/25 08:09:54;;;;;;;25.38;4.50;;;8.00;90.60;;;;;;5072591;28;20021;-46
2023/12/25 08:12:21;;;;;;;22.38;4.97;;;8.00;90.80;;;;;;5066474;28;20039;-47
2023/12/25 08:14:48;;;;;;;25.15;5.68;;;8.10;91.00;;;;;;5084079;28;20104;-48
2023/12/25 08:17:20;;;;;;;26.17;5.40;;;8.10;90.90;;;;;;5084083;28;20381;-46
2023/12/25 08:19:48;;;;;;;23.65;5.53;;;8.10;91.00;;;;;;5079555;28;20016;-47
2023/12/25 08:22:15;;;;;;;22.67;4.85;;;8.10;91.00;;;;;;5079912;28;20024;-46
2023/12/25 08:24:43;;;;;;;25.35;5.38;;;8.10;90.80;;;;;;5084147;28;20021;-46
2023/12/25 08:27:08;;;;;;;27.63;5.75;;;8.10;90.50;;;;;;5075258;28;20631;-48
2023/12/25 08:29:35;;;;;;;35.25;4.63;;;8.10;90.10;;;;;;5082249;28;20062;-46
2023/12/25 08:32:02;;;;;;;18.77;4.07;;;8.10;89.50;;;;;;5078142;28;20350;-46
2023/12/25 08:34:32;;;;;;;21.30;7.38;;;8.10;89.10;;;;;;5077518;28;20067;-48
2023/12/25 08:36:59;;;;;;;16.17;6.30;;;8.10;88.80;;;;;;5077128;28;20032;-49
2023/12/25 08:39:26;;;;;;;13.57;3.85;;;8.10;88.60;;;;;;5085522;28;20028;-47
2023/12/25 08:41:51;;;;;;;26.45;5.38;;;8.10;88.40;;;;;;5083969;28;20020;-46
2023/12/25 08:44:19;;;;;;;26.10;5.13;;;8.00;88.30;;;;;;5084449;28;20472;-47
2023/12/25 08:46:46;;;;;;;21.35;5.03;;;7.90;88.10;;;;;;5081509;28;20445;-48
2023/12/25 08:49:13;;;;;;;19.90;4.95;;;7.90;87.90;;;;;;5074689;28;20035;-49
2023/12/25 08:51:41;;;;;;;18.10;4.47;;;7.90;87.80;;;;;;5077372;28;20044;-46
2023/12/25 08:54:08;;;;;;;28.20;5.93;;;7.90;87.80;;;;;;5078837;28;20089;-47
2023/12/25 08:56:34;;;;;;;28.25;5.43;;;7.90;87.80;;;;;;5094509;28;20021;-46
2023/12/25 08:59:00;;;;;;;18.42;4.78;;;7.90;87.90;;;;;;5087664;28;20332;-48
2023/12/25 09:01:29;;;;;;;26.35;5.20;;;7.90;88.10;;;;;;5057842;28;20094;-47
2023/12/25 09:03:55;;;;;;;26.25;5.35;;;7.90;88.30;;;;;;5089058;28;20024;-51
2023/12/25 09:06:23;;;;;;;26.52;5.40;;;8.00;88.50;;;;;;5064047;28;20025;-47
2023/12/25 09:08:49;;;;;;;27.88;4.78;;;8.10;88.70;;;;;;5081323;28;20032;-49
2023/12/25 09:11:21;;;;;;;39.92;8.50;;;8.20;88.90;;;;;;5081013;28;20033;-48
2023/12/25 09:13:47;;;;;;;21.30;5.30;;;8.20;89.00;;;;;;5075315;28;20028;-49
2023/12/25 09:16:13;;;;;;;21.48;6.07;;;8.30;89.00;;;;;;5077055;28;20036;-51
2023/12/25 09:18:42;;;;;;;28.17;5.03;;;8.30;89.00;;;;;;5088115;28;20039;-53
2023/12/25 09:21:11;;;;;;;17.42;4.32;;;8.30;88.80;;;;;;5080294;28;20498;-48
2023/12/25 09:23:37;;;;;;;22.60;4.63;;;8.30;88.60;;;;;;5075464;28;20492;-53
2023/12/25 09:26:03;;;;;;;21.17;4.68;;;8.30;88.30;;;;;;5075458;28;20044;-53
2023/12/25 09:28:33;;;;;;;23.80;5.10;;;8.30;87.80;;;;;;5074683;28;20085;-50
2023/12/25 09:31:02;;;;;;;18.98;4.82;;;8.20;87.50;;;;;;5076061;28;20020;-47
2023/12/25 09:33:31;;;;;;;23.17;4.43;;;8.30;87.40;;;;;;5076770;28;20441;-47
2023/12/25 09:35:59;;;;;;;22.93;5.13;;;8.40;87.20;;;;;;5079250;28;20103;-50
2023/12/25 09:38:26;;;;;;;33.05;5.93;;;8.40;87.10;;;;;;5079022;28;20024;-49
2023/12/25 09:40:57;;;;;;;25.05;4.55;;;8.40;86.80;;;;;;5070148;28;20035;-47
2023/12/25 09:43:24;;;;;;;30.77;5.47;;;8.40;86.50;;;;;;5079135;28;20361;-47
2023/12/25 09:45:50;;;;;;;26.45;4.55;;;8.40;86.50;;;;;;5074459;28;20044;-50
2023/12/25 09:48:19;;;;;;;31.00;4.57;;;8.40;86.60;;;;;;5074640;28;20029;-47
2023/12/25 09:50:46;;;;;;;22.27;5.18;;;8.50;86.60;;;;;;5078967;28;20043;-48
2023/12/25 09:53:13;;;;;;;27.25;4.80;;;8.50;86.60;;;;;;5077354;28;20043;-49
2023/12/25 09:55:40;;;;;;;22.25;4.43;;;8.50;86.30;;;;;;5064083;28;20119;-49
2023/12/25 09:58:10;;;;;;;32.50;6.15;;;8.50;86.10;;;;;;5076541;28;20029;-47
2023/12/25 10:00:37;;;;;;;18.58;5.07;;;8.50;86.00;;;;;;5075355;28;20033;-47
2023/12/25 10:03:04;;;;;;;26.25;5.70;;;8.50;85.90;;;;;;5074467;28;20027;-47
2023/12/25 10:05:29;;;;;;;22.98;5.22;;;8.50;85.70;;;;;;5085985;28;20102;-47
2023/12/25 10:07:56;;;;;;;21.88;4.65;;;8.50;85.90;;;;;;5074253;28;20059;-48
2023/12/25 10:10:29;;;;;;;24.90;5.35;;;8.40;85.70;;;;;;5081333;28;20331;-47
2023/12/25 10:12:59;;;;;;;22.40;4.90;;;8.40;85.80;;;;;;5083933;28;20024;-48
2023/12/25 10:15:25;;;;;;;25.05;4.97;;;8.30;85.80;;;;;;5073464;28;20126;-48
2023/12/25 10:18:05;;;;;;;22.23;5.80;;;8.30;85.80;;;;;;5079653;28;20083;-48
2023/12/25 10:20:31;;;;;;;26.52;6.88;;;8.40;85.90;;;;;;5077136;28;20280;-48
2023/12/25 10:22:59;;;;;;;23.33;4.55;;;8.40;86.00;;;;;;5072595;28;20028;-47
2023/12/25 10:25:31;;;;;;;23.70;4.50;;;8.40;85.90;;;;;;5074702;28;20036;-49
2023/12/25 10:28:10;;;;;;;27.27;6.75;;;8.40;85.90;;;;;;5076105;28;20024;-50
2023/12/25 10:30:37;;;;;;;21.13;5.22;;;8.40;86.10;;;;;;5073007;28;20835;-53
2023/12/25 10:33:14;;;;;;;31.63;7.50;;;8.40;86.20;;;;;;5075044;28;20028;-50
2023/12/25 10:35:41;;;;;;;25.55;4.75;;;8.30;86.30;;;;;;5081586;28;20032;-48
2023/12/25 10:38:07;;;;;;;24.58;4.15;;;8.30;86.20;;;;;;5073677;28;20089;-54
2023/12/25 10:40:36;;;;;;;16.80;4.15;;;8.30;86.00;;;;;;5088351;28;20023;-47
2023/12/25 10:43:01;;;;;;;22.63;4.57;;;8.30;86.00;;;;;;5087623;28;20020;-48
2023/12/25 10:45:33;;;;;;;21.23;6.07;;;8.20;85.90;;;;;;5088393;28;20024;-48
2023/12/25 10:48:05;;;;;;;22.33;4.63;;;8.20;85.70;;;;;;5087093;28;20031;-49
2023/12/25 10:50:38;;;;;;;23.60;5.18;;;8.30;85.80;;;;;;5094649;28;20618;-51
2023/12/25 10:53:05;;;;;;;22.75;4.25;;;8.30;85.40;;;;;;5075664;28;20493;-51
2023/12/25 10:55:49;;;;;;;20.38;5.10;;;8.30;85.40;;;;;;5079101;28;20032;-51
2023/12/25 10:58:18;;;;;;;24.27;4.72;;;8.30;85.30;;;;;;5074263;28;20663;-50
2023/12/25 11:00:49;;;;;;;22.45;4.75;;;8.30;85.20;;;;;;5074778;28;20111;-48
2023/12/25 11:03:22;;;;;;;30.80;5.85;;;8.20;85.00;;;;;;5078886;28;20020;-54
2023/12/25 11:05:48;;;;;;;23.85;4.60;;;8.30;85.00;;;;;;5084879;28;20019;-50
2023/12/25 11:08:17;;;;;;;18.42;4.28;;;8.30;85.00;;;;;;5079460;28;20408;-50
2023/12/25 11:10:45;;;;;;;18.83;4.10;;;8.30;84.80;;;;;;5070960;28;20508;-50
2023/12/25 11:13:13;;;;;;;26.83;5.28;;;8.40;84.80;;;;;;5080533;28;20036;-49
2023/12/25 11:15:40;;;;;;;18.15;3.63;;;8.40;85.00;;;;;;5083191;28;20040;-47
2023/12/25 11:18:09;;;;;;;22.10;4.88;;;8.40;85.30;;;;;;5054374;28;20024;-47
2023/12/25 11:20:35;;;;;;;22.48;5.38;;;8.40;85.40;;;;;;5074233;28;20031;-51
2023/12/25 11:23:06;;;;;;;19.80;5.80;;;8.40;85.50;;;;;;5074967;28;20032;-48
2023/12/25 11:25:33;;;;;;;30.00;6.72;;;8.50;85.50;;;;;;5054643;28;20159;-47
2023/12/25 11:28:04;;;;;;;20.50;5.32;;;8.40;85.80;;;;;;5072927;28;20017;-47
2023/12/25 11:30:38;;;;;;;26.45;6.13;;;8.40;86.00;;;;;;5064236;28;20024;-49
2023/12/25 11:33:07;;;;;;;21.35;6.13;;;8.40;86.00;;;;;;5086131;28;20032;-52
2023/12/25 11:35:34;;;;;;;24.60;5.65;;;8.40;86.00;;;;;;5077266;28;20480;-50
2023/12/25 11:38:18;;;;;;;29.70;5.38;;;8.40;86.20;;;;;;5087244;28;20032;-52
2023/12/25 11:40:48;;;;;;;19.58;5.50;;;8.50;86.60;;;;;;5072167;28;21301;-49
2023/12/25 11:43:23;;;;;;;21.98;6.13;;;8.50;86.60;;;;;;5080295;28;20028;-49
2023/12/25 11:45:52;;;;;;;33.10;6.15;;;8.60;86.70;;;;;;5098579;28;20101;-48
2023/12/25 11:48:19;;;;;;;31.30;5.23;;;8.70;86.60;;;;;;5088975;28;20392;-48
2023/12/25 11:50:46;;;;;;;23.65;5.65;;;8.80;86.40;;;;;;5093608;28;20028;-49
2023/12/25 11:53:54;;;;;;;30.27;5.03;;;8.80;86.50;;;;;;5081125;28;20064;-47
2023/12/25 11:56:20;;;;;;;21.83;6.10;;;8.80;86.40;;;;;;5091031;28;20454;-50
2023/12/25 11:58:50;;;;;;;20.98;5.50;;;8.90;86.40;;;;;;5078431;28;20024;-49
2023/12/25 12:01:18;;;;;;;22.58;6.40;;;8.90;86.20;;;;;;5077589;28;20051;-53
2023/12/25 12:03:50;;;;;;;19.48;4.40;;;8.90;86.40;;;;;;5058414;28;20020;-50
2023/12/25 12:06:16;;;;;;;19.25;5.32;;;8.90;86.50;;;;;;5078841;28;20437;-50
2023/12/25 12:08:44;;;;;;;24.55;5.43;;;8.90;86.60;;;;;;5076273;28;20021;-48
2023/12/25 12:11:13;;;;;;;32.30;5.05;;;8.90;86.80;;;;;;5075739;28;20035;-49
2023/12/25 12:13:39;;;;;;;19.17;4.78;;;8.90;86.80;;;;;;5075525;28;20094;-49
2023/12/25 12:16:07;;;;;;;21.33;5.95;;;8.90;87.00;;;;;;5060544;28;20044;-48
2023/12/25 12:18:34;;;;;;;26.38;7.07;;;8.90;86.90;;;;;;5074599;28;20471;-50
2023/12/25 12:21:04;;;;;;;17.92;4.25;;;8.80;86.80;;;;;;5075189;28;20059;-50
2023/12/25 12:23:34;;;;;;;17.75;4.50;;;8.90;87.30;;;;;;5058269;28;20082;-48
2023/12/25 12:26:13;;;;;;;28.55;5.03;;;9.00;87.00;;;;;;5075496;28;20505;-48
2023/12/25 12:28:40;;;;;;;21.67;4.27;;;8.90;86.40;;;;;;5075909;28;20040;-52
2023/12/25 12:31:13;;;;;;;17.63;4.13;;;8.90;86.30;;;;;;5075805;28;20291;-50
2023/12/25 12:34:12;;;;;;;17.48;3.70;;;9.00;86.20;;;;;;5087263;28;20050;-49
2023/12/25 12:36:39;;;;;;;;;;;9.10;86.60;;;;;;5070670;28;20136;-52
2023/12/25 12:39:06;;;;;;;22.42;4.68;;;9.00;85.50;;;;;;5082583;28;19953;-50
2023/12/25 12:41:33;;;;;;;23.60;4.47;;;9.00;85.10;;;;;;5075731;28;20025;-48
2023/12/25 12:44:08;;;;;;;23.00;5.10;;;9.00;85.10;;;;;;5079617;28;20051;-48
2023/12/25 12:46:35;;;;;;;24.30;4.85;;;9.10;85.40;;;;;;5076580;28;20024;-47
2023/12/25 12:49:03;;;;;;;22.45;5.13;;;9.10;85.00;;;;;;5076603;28;20024;-48